sensor_id;sensor_type;location;lat;lon;timestamp;P1;durP1;ratioP1;P2;durP2;ratioP2
4428;SDS011;2227;47.810;8.810;2022-07-23T04:33:30;11.52;;;10.07;;
4428;SDS011;2227;47.810;8.810;2022-07-23T04:35:57;13.63;;;11.13;;
4428;SDS011;2227;47.810;8.810;2022-07-23T04:38:24;12.18;;;10.88;;
4428;SDS011;2227;47.810;8.810;2022-07-23T04:40:50;13.85;;;12.20;;
4428;SDS011;2227;47.810;8.810;2022-07-23T04:43:17;12.98;;;11.15;;
4428;SDS011;2227;47.810;8.810;2022-07-23T04:45:45;12.48;;;11.10;;
4428;SDS011;2227;47.810;8.810;2022-07-23T04:48:12;13.60;;;11.07;;
4428;SDS011;2227;47.810;8.810;2022-07-23T04:50:39;12.48;;;11.15;;
4428;SDS011;2227;47.810;8.810;2022-07-23T04:53:06;12.82;;;11.38;;
4428;SDS011;2227;47.810;8.810;2022-07-23T04:55:32;12.50;;;10.90;;
4428;SDS011;2227;47.810;8.810;2022-07-23T04:57:59;11.85;;;10.65;;
4428;SDS011;2227;47.810;8.810;2022-07-23T05:00:26;12.05;;;10.70;;
4428;SDS011;2227;47.810;8.810;2022-07-23T05:02:53;12.20;;;10.50;;
4428;SDS011;2227;47.810;8.810;2022-07-23T05:05:20;11.45;;;10.25;;
4428;SDS011;2227;47.810;8.810;2022-07-23T05:07:47;12.80;;;10.73;;
4428;SDS011;2227;47.810;8.810;2022-07-23T05:10:13;13.15;;;10.85;;
4428;SDS011;2227;47.810;8.810;2022-07-23T05:12:40;10.80;;;9.25;;
4428;SDS011;2227;47.810;8.810;2022-07-23T05:15:07;12.90;;;9.63;;
4428;SDS011;2227;47.810;8.810;2022-07-23T05:17:34;8.90;;;8.00;;
4428;SDS011;2227;47.810;8.810;2022-07-23T05:20:01;9.60;;;8.57;;
4428;SDS011;2227;47.810;8.810;2022-07-23T05:22:29;11.27;;;9.32;;
4428;SDS011;2227;47.810;8.810;2022-07-23T05:24:55;11.23;;;9.93;;
4428;SDS011;2227;47.810;8.810;2022-07-23T05:27:22;10.60;;;9.20;;
4428;SDS011;2227;47.810;8.810;2022-07-23T05:29:49;10.52;;;8.93;;
4428;SDS011;2227;47.810;8.810;2022-07-23T05:32:16;10.10;;;9.10;;
4428;SDS011;2227;47.810;8.810;2022-07-23T05:34:43;10.60;;;9.23;;
4428;SDS011;2227;47.810;8.810;2022-07-23T05:37:10;11.45;;;9.52;;
4428;SDS011;2227;47.810;8.810;2022-07-23T05:39:37;12.90;;;10.25;;
4428;SDS011;2227;47.810;8.810;2022-07-23T05:42:03;11.73;;;9.98;;
4428;SDS011;2227;47.810;8.810;2022-07-23T05:44:30;12.98;;;10.07;;
4428;SDS011;2227;47.810;8.810;2022-07-23T05:47:00;12.23;;;10.20;;
4428;SDS011;2227;47.810;8.810;2022-07-23T05:49:27;11.60;;;9.77;;
4428;SDS011;2227;47.810;8.810;2022-07-23T05:51:56;12.27;;;9.45;;
4428;SDS011;2227;47.810;8.810;2022-07-23T05:54:22;11.18;;;9.13;;
4428;SDS011;2227;47.810;8.810;2022-07-23T05:56:49;12.38;;;10.00;;
4428;SDS011;2227;47.810;8.810;2022-07-23T05:59:16;11.20;;;10.02;;
4428;SDS011;2227;47.810;8.810;2022-07-23T06:01:43;13.18;;;10.13;;
4428;SDS011;2227;47.810;8.810;2022-07-23T06:04:10;11.90;;;10.70;;
4428;SDS011;2227;47.810;8.810;2022-07-23T06:06:37;10.60;;;9.50;;
4428;SDS011;2227;47.810;8.810;2022-07-23T06:09:03;12.88;;;10.25;;
4428;SDS011;2227;47.810;8.810;2022-07-23T06:11:31;13.52;;;10.35;;
4428;SDS011;2227;47.810;8.810;2022-07-23T06:13:58;11.90;;;9.82;;
4428;SDS011;2227;47.810;8.810;2022-07-23T06:16:24;11.15;;;9.95;;
4428;SDS011;2227;47.810;8.810;2022-07-23T06:18:51;11.85;;;9.80;;
4428;SDS011;2227;47.810;8.810;2022-07-23T06:21:18;11.98;;;10.38;;
4428;SDS011;2227;47.810;8.810;2022-07-23T06:24:05;11.18;;;9.98;;
4428;SDS011;2227;47.810;8.810;2022-07-23T06:26:41;11.02;;;9.52;;
4428;SDS011;2227;47.810;8.810;2022-07-23T06:29:08;12.57;;;9.50;;
4428;SDS011;2227;47.810;8.810;2022-07-23T06:31:34;11.10;;;9.57;;
4428;SDS011;2227;47.810;8.810;2022-07-23T06:34:01;9.52;;;8.57;;
4428;SDS011;2227;47.810;8.810;2022-07-23T06:36:29;11.45;;;9.75;;
4428;SDS011;2227;47.810;8.810;2022-07-23T06:38:56;9.98;;;8.93;;
4428;SDS011;2227;47.810;8.810;2022-07-23T06:41:23;10.75;;;9.13;;
4428;SDS011;2227;47.810;8.810;2022-07-23T06:43:50;10.23;;;9.25;;
4428;SDS011;2227;47.810;8.810;2022-07-23T06:46:17;11.85;;;8.95;;
4428;SDS011;2227;47.810;8.810;2022-07-23T06:48:44;10.35;;;8.93;;
4428;SDS011;2227;47.810;8.810;2022-07-23T06:51:11;10.70;;;9.20;;
4428;SDS011;2227;47.810;8.810;2022-07-23T06:53:38;12.77;;;11.10;;
4428;SDS011;2227;47.810;8.810;2022-07-23T06:56:04;10.30;;;9.18;;
4428;SDS011;2227;47.810;8.810;2022-07-23T06:58:31;10.52;;;9.43;;
4428;SDS011;2227;47.810;8.810;2022-07-23T07:00:58;12.45;;;11.15;;
4428;SDS011;2227;47.810;8.810;2022-07-23T07:03:25;11.07;;;9.77;;
4428;SDS011;2227;47.810;8.810;2022-07-23T07:05:52;10.60;;;9.52;;
4428;SDS011;2227;47.810;8.810;2022-07-23T07:08:20;10.20;;;9.02;;
4428;SDS011;2227;47.810;8.810;2022-07-23T07:10:46;11.95;;;9.25;;
4428;SDS011;2227;47.810;8.810;2022-07-23T07:13:13;9.80;;;8.73;;
4428;SDS011;2227;47.810;8.810;2022-07-23T07:15:40;11.30;;;9.35;;
4428;SDS011;2227;47.810;8.810;2022-07-23T07:18:07;11.27;;;10.07;;
4428;SDS011;2227;47.810;8.810;2022-07-23T07:20:34;10.18;;;9.18;;
4428;SDS011;2227;47.810;8.810;2022-07-23T07:23:01;11.93;;;9.23;;
4428;SDS011;2227;47.810;8.810;2022-07-23T07:25:28;11.13;;;9.88;;
4428;SDS011;2227;47.810;8.810;2022-07-23T07:27:56;10.18;;;8.88;;
4428;SDS011;2227;47.810;8.810;2022-07-23T07:30:23;9.57;;;8.40;;
4428;SDS011;2227;47.810;8.810;2022-07-23T07:32:49;10.93;;;9.73;;
4428;SDS011;2227;47.810;8.810;2022-07-23T07:35:24;11.43;;;9.05;;
4428;SDS011;2227;47.810;8.810;2022-07-23T07:37:51;11.27;;;10.02;;
4428;SDS011;2227;47.810;8.810;2022-07-23T07:40:18;10.85;;;9.70;;
4428;SDS011;2227;47.810;8.810;2022-07-23T07:42:50;10.27;;;9.18;;
4428;SDS011;2227;47.810;8.810;2022-07-23T07:45:21;10.82;;;9.20;;
4428;SDS011;2227;47.810;8.810;2022-07-23T07:47:49;10.23;;;9.13;;
4428;SDS011;2227;47.810;8.810;2022-07-23T07:50:17;10.10;;;9.00;;
4428;SDS011;2227;47.810;8.810;2022-07-23T07:52:45;11.93;;;9.52;;
4428;SDS011;2227;47.810;8.810;2022-07-23T07:55:12;12.85;;;9.88;;
4428;SDS011;2227;47.810;8.810;2022-07-23T07:57:39;10.73;;;9.35;;
4428;SDS011;2227;47.810;8.810;2022-07-23T08:00:07;9.93;;;8.93;;
4428;SDS011;2227;47.810;8.810;2022-07-23T08:02:43;11.48;;;9.48;;
4428;SDS011;2227;47.810;8.810;2022-07-23T08:05:12;10.55;;;9.52;;
4428;SDS011;2227;47.810;8.810;2022-07-23T08:07:40;10.75;;;9.65;;
4428;SDS011;2227;47.810;8.810;2022-07-23T08:10:07;14.02;;;10.35;;
4428;SDS011;2227;47.810;8.810;2022-07-23T08:12:43;10.73;;;9.35;;
4428;SDS011;2227;47.810;8.810;2022-07-23T08:15:12;11.20;;;10.00;;
4428;SDS011;2227;47.810;8.810;2022-07-23T08:17:40;10.15;;;8.35;;
4428;SDS011;2227;47.810;8.810;2022-07-23T08:20:08;10.20;;;9.10;;
4428;SDS011;2227;47.810;8.810;2022-07-23T08:25:21;10.55;;;8.07;;
4428;SDS011;2227;47.810;8.810;2022-07-23T08:27:59;10.75;;;8.65;;
4428;SDS011;2227;47.810;8.810;2022-07-23T08:30:30;10.52;;;8.88;;
4428;SDS011;2227;47.810;8.810;2022-07-23T08:33:00;9.55;;;8.57;;
4428;SDS011;2227;47.810;8.810;2022-07-23T08:35:32;10.15;;;9.02;;
4428;SDS011;2227;47.810;8.810;2022-07-23T08:38:01;10.32;;;9.27;;
4428;SDS011;2227;47.810;8.810;2022-07-23T08:40:30;10.95;;;8.93;;
4428;SDS011;2227;47.810;8.810;2022-07-23T08:42:59;10.13;;;9.00;;
4428;SDS011;2227;47.810;8.810;2022-07-23T08:45:30;10.05;;;8.32;;
4428;SDS011;2227;47.810;8.810;2022-07-23T08:47:59;9.93;;;8.93;;
4428;SDS011;2227;47.810;8.810;2022-07-23T08:50:31;10.52;;;8.52;;
4428;SDS011;2227;47.810;8.810;2022-07-23T08:53:02;9.23;;;8.25;;
4428;SDS011;2227;47.810;8.810;2022-07-23T08:55:32;9.15;;;8.13;;
4428;SDS011;2227;47.810;8.810;2022-07-23T08:57:59;10.55;;;9.15;;
4428;SDS011;2227;47.810;8.810;2022-07-23T09:00:26;9.48;;;8.48;;
4428;SDS011;2227;47.810;8.810;2022-07-23T09:02:53;9.07;;;8.25;;
4428;SDS011;2227;47.810;8.810;2022-07-23T09:05:20;10.13;;;9.02;;
4428;SDS011;2227;47.810;8.810;2022-07-23T09:10:42;12.45;;;9.27;;
4428;SDS011;2227;47.810;8.810;2022-07-23T09:15:56;9.95;;;8.93;;
4428;SDS011;2227;47.810;8.810;2022-07-23T09:18:29;10.70;;;9.63;;
4428;SDS011;2227;47.810;8.810;2022-07-23T09:21:10;12.55;;;10.30;;
4428;SDS011;2227;47.810;8.810;2022-07-23T09:23:59;10.68;;;9.57;;
4428;SDS011;2227;47.810;8.810;2022-07-23T09:34:14;11.63;;;10.43;;
4428;SDS011;2227;47.810;8.810;2022-07-23T09:36:49;11.70;;;10.32;;
4428;SDS011;2227;47.810;8.810;2022-07-23T09:39:28;11.98;;;10.18;;
4428;SDS011;2227;47.810;8.810;2022-07-23T09:41:57;13.00;;;10.95;;
4428;SDS011;2227;47.810;8.810;2022-07-23T09:44:41;12.18;;;10.88;;
4428;SDS011;2227;47.810;8.810;2022-07-23T09:47:10;13.05;;;10.52;;
4428;SDS011;2227;47.810;8.810;2022-07-23T09:49:37;13.05;;;11.40;;
4428;SDS011;2227;47.810;8.810;2022-07-23T09:52:04;12.75;;;11.45;;
4428;SDS011;2227;47.810;8.810;2022-07-23T09:54:35;11.85;;;10.65;;
4428;SDS011;2227;47.810;8.810;2022-07-23T09:57:08;11.40;;;10.27;;
4428;SDS011;2227;47.810;8.810;2022-07-23T09:59:38;11.00;;;9.82;;
4428;SDS011;2227;47.810;8.810;2022-07-23T10:02:06;11.98;;;9.50;;
4428;SDS011;2227;47.810;8.810;2022-07-23T10:04:34;11.30;;;10.10;;
4428;SDS011;2227;47.810;8.810;2022-07-23T10:07:06;9.90;;;8.73;;
4428;SDS011;2227;47.810;8.810;2022-07-23T10:09:37;10.55;;;9.45;;
4428;SDS011;2227;47.810;8.810;2022-07-23T10:12:08;11.13;;;9.52;;
4428;SDS011;2227;47.810;8.810;2022-07-23T10:14:42;9.80;;;8.80;;
4428;SDS011;2227;47.810;8.810;2022-07-23T10:17:09;9.43;;;8.52;;
4428;SDS011;2227;47.810;8.810;2022-07-23T10:19:37;9.38;;;8.35;;
4428;SDS011;2227;47.810;8.810;2022-07-23T10:22:06;9.80;;;8.73;;
4428;SDS011;2227;47.810;8.810;2022-07-23T10:33:17;9.25;;;8.32;;
4428;SDS011;2227;47.810;8.810;2022-07-23T10:36:27;12.10;;;10.77;;
4428;SDS011;2227;47.810;8.810;2022-07-23T10:39:22;11.68;;;10.48;;
4428;SDS011;2227;47.810;8.810;2022-07-23T10:41:51;10.40;;;9.30;;
4428;SDS011;2227;47.810;8.810;2022-07-23T10:44:19;11.15;;;10.02;;
4428;SDS011;2227;47.810;8.810;2022-07-23T10:46:53;10.40;;;9.32;;
4428;SDS011;2227;47.810;8.810;2022-07-23T10:49:35;11.75;;;10.63;;
4428;SDS011;2227;47.810;8.810;2022-07-23T10:54:42;12.00;;;10.27;;
4428;SDS011;2227;47.810;8.810;2022-07-23T10:57:10;11.35;;;10.15;;
4428;SDS011;2227;47.810;8.810;2022-07-23T11:02:28;11.88;;;10.65;;
4428;SDS011;2227;47.810;8.810;2022-07-23T11:05:40;10.95;;;9.95;;
4428;SDS011;2227;47.810;8.810;2022-07-23T11:10:37;11.90;;;10.27;;
4428;SDS011;2227;47.810;8.810;2022-07-23T11:31:56;10.00;;;8.95;;
4428;SDS011;2227;47.810;8.810;2022-07-23T11:34:35;10.30;;;9.05;;
4428;SDS011;2227;47.810;8.810;2022-07-23T11:37:07;10.10;;;9.10;;
4428;SDS011;2227;47.810;8.810;2022-07-23T11:39:36;10.45;;;9.50;;
4428;SDS011;2227;47.810;8.810;2022-07-23T11:42:05;10.82;;;9.77;;
4428;SDS011;2227;47.810;8.810;2022-07-23T11:44:39;10.77;;;9.18;;
4428;SDS011;2227;47.810;8.810;2022-07-23T11:47:09;10.32;;;9.32;;
4428;SDS011;2227;47.810;8.810;2022-07-23T11:49:51;10.43;;;9.38;;
4428;SDS011;2227;47.810;8.810;2022-07-23T11:52:19;10.00;;;9.00;;
4428;SDS011;2227;47.810;8.810;2022-07-23T11:54:51;11.15;;;9.70;;
4428;SDS011;2227;47.810;8.810;2022-07-23T11:57:23;9.95;;;8.90;;
4428;SDS011;2227;47.810;8.810;2022-07-23T11:59:56;11.20;;;10.10;;
4428;SDS011;2227;47.810;8.810;2022-07-23T12:02:27;10.77;;;9.77;;
4428;SDS011;2227;47.810;8.810;2022-07-23T12:04:54;10.40;;;9.25;;
4428;SDS011;2227;47.810;8.810;2022-07-23T12:07:24;10.13;;;9.13;;
4428;SDS011;2227;47.810;8.810;2022-07-23T12:09:57;9.85;;;8.85;;
4428;SDS011;2227;47.810;8.810;2022-07-23T12:12:25;10.23;;;9.25;;
4428;SDS011;2227;47.810;8.810;2022-07-23T12:14:54;10.45;;;8.95;;
4428;SDS011;2227;47.810;8.810;2022-07-23T12:17:29;10.23;;;9.23;;
4428;SDS011;2227;47.810;8.810;2022-07-23T12:19:58;10.27;;;9.30;;
4428;SDS011;2227;47.810;8.810;2022-07-23T12:22:32;10.15;;;9.15;;
4428;SDS011;2227;47.810;8.810;2022-07-23T12:25:07;11.05;;;10.05;;
4428;SDS011;2227;47.810;8.810;2022-07-23T12:27:34;9.73;;;8.82;;
4428;SDS011;2227;47.810;8.810;2022-07-23T12:30:18;11.05;;;10.05;;
4428;SDS011;2227;47.810;8.810;2022-07-23T12:32:47;10.07;;;9.10;;
4428;SDS011;2227;47.810;8.810;2022-07-23T12:35:16;9.05;;;8.25;;
4428;SDS011;2227;47.810;8.810;2022-07-23T12:37:44;9.43;;;8.52;;
4428;SDS011;2227;47.810;8.810;2022-07-23T12:40:19;10.50;;;9.50;;
4428;SDS011;2227;47.810;8.810;2022-07-23T12:42:59;9.38;;;8.48;;
4428;SDS011;2227;47.810;8.810;2022-07-23T12:45:44;10.15;;;9.15;;
4428;SDS011;2227;47.810;8.810;2022-07-23T12:48:17;9.50;;;8.65;;
4428;SDS011;2227;47.810;8.810;2022-07-23T12:50:51;10.25;;;9.25;;
4428;SDS011;2227;47.810;8.810;2022-07-23T12:53:33;10.15;;;9.15;;
4428;SDS011;2227;47.810;8.810;2022-07-23T12:56:04;9.10;;;8.30;;
4428;SDS011;2227;47.810;8.810;2022-07-23T13:03:56;10.80;;;9.77;;
4428;SDS011;2227;47.810;8.810;2022-07-23T13:06:27;9.35;;;8.45;;
4428;SDS011;2227;47.810;8.810;2022-07-23T13:08:56;9.45;;;8.55;;
4428;SDS011;2227;47.810;8.810;2022-07-23T13:11:23;10.48;;;9.48;;
4428;SDS011;2227;47.810;8.810;2022-07-23T13:13:50;9.48;;;8.55;;
4428;SDS011;2227;47.810;8.810;2022-07-23T13:16:18;10.20;;;9.25;;
4428;SDS011;2227;47.810;8.810;2022-07-23T13:18:46;10.68;;;9.10;;
4428;SDS011;2227;47.810;8.810;2022-07-23T13:21:14;9.60;;;8.68;;
4428;SDS011;2227;47.810;8.810;2022-07-23T13:23:42;8.82;;;8.00;;
4428;SDS011;2227;47.810;8.810;2022-07-23T13:26:10;9.98;;;9.07;;
4428;SDS011;2227;47.810;8.810;2022-07-23T13:28:37;9.45;;;8.52;;
4428;SDS011;2227;47.810;8.810;2022-07-23T13:31:04;9.23;;;8.43;;
4428;SDS011;2227;47.810;8.810;2022-07-23T13:33:31;9.82;;;8.93;;
4428;SDS011;2227;47.810;8.810;2022-07-23T13:35:58;8.90;;;8.00;;
4428;SDS011;2227;47.810;8.810;2022-07-23T13:38:25;8.98;;;8.18;;
4428;SDS011;2227;47.810;8.810;2022-07-23T13:40:53;8.45;;;7.65;;
4428;SDS011;2227;47.810;8.810;2022-07-23T13:43:21;9.95;;;8.98;;
4428;SDS011;2227;47.810;8.810;2022-07-23T13:45:49;9.02;;;8.20;;
4428;SDS011;2227;47.810;8.810;2022-07-23T13:48:18;10.60;;;8.63;;
4428;SDS011;2227;47.810;8.810;2022-07-23T13:50:46;8.98;;;8.07;;
4428;SDS011;2227;47.810;8.810;2022-07-23T13:53:15;9.00;;;8.20;;
4428;SDS011;2227;47.810;8.810;2022-07-23T13:55:44;8.40;;;7.68;;
4428;SDS011;2227;47.810;8.810;2022-07-23T13:58:14;9.32;;;8.43;;
4428;SDS011;2227;47.810;8.810;2022-07-23T14:00:43;9.43;;;8.52;;
4428;SDS011;2227;47.810;8.810;2022-07-23T14:03:20;8.38;;;7.57;;
4428;SDS011;2227;47.810;8.810;2022-07-23T14:05:52;9.75;;;8.85;;
4428;SDS011;2227;47.810;8.810;2022-07-23T14:08:22;9.18;;;8.27;;
4428;SDS011;2227;47.810;8.810;2022-07-23T14:10:49;9.55;;;8.65;;
4428;SDS011;2227;47.810;8.810;2022-07-23T14:13:16;9.73;;;8.82;;
4428;SDS011;2227;47.810;8.810;2022-07-23T14:15:47;8.77;;;7.93;;
4428;SDS011;2227;47.810;8.810;2022-07-23T14:18:14;9.15;;;8.25;;
4428;SDS011;2227;47.810;8.810;2022-07-23T14:20:42;9.93;;;9.02;;
4428;SDS011;2227;47.810;8.810;2022-07-23T14:23:09;8.57;;;7.78;;
4428;SDS011;2227;47.810;8.810;2022-07-23T14:25:38;9.20;;;8.30;;
4428;SDS011;2227;47.810;8.810;2022-07-23T14:28:05;9.25;;;8.45;;
4428;SDS011;2227;47.810;8.810;2022-07-23T14:30:34;10.38;;;9.45;;
4428;SDS011;2227;47.810;8.810;2022-07-23T14:33:01;10.02;;;9.10;;
4428;SDS011;2227;47.810;8.810;2022-07-23T14:35:28;9.80;;;8.80;;
4428;SDS011;2227;47.810;8.810;2022-07-23T14:37:55;10.10;;;9.10;;
4428;SDS011;2227;47.810;8.810;2022-07-23T14:40:22;9.63;;;8.73;;
4428;SDS011;2227;47.810;8.810;2022-07-23T14:42:50;10.35;;;9.43;;
4428;SDS011;2227;47.810;8.810;2022-07-23T14:45:17;11.55;;;9.35;;
4428;SDS011;2227;47.810;8.810;2022-07-23T14:47:44;9.32;;;8.52;;
4428;SDS011;2227;47.810;8.810;2022-07-23T14:50:13;10.07;;;9.07;;
4428;SDS011;2227;47.810;8.810;2022-07-23T14:52:40;10.20;;;9.23;;
4428;SDS011;2227;47.810;8.810;2022-07-23T14:55:07;9.98;;;8.98;;
4428;SDS011;2227;47.810;8.810;2022-07-23T14:57:35;9.75;;;8.85;;
4428;SDS011;2227;47.810;8.810;2022-07-23T15:00:05;10.05;;;9.07;;
4428;SDS011;2227;47.810;8.810;2022-07-23T15:02:34;10.20;;;9.20;;
4428;SDS011;2227;47.810;8.810;2022-07-23T15:05:01;9.27;;;8.43;;
4428;SDS011;2227;47.810;8.810;2022-07-23T15:07:32;10.05;;;9.13;;
4428;SDS011;2227;47.810;8.810;2022-07-23T15:09:59;9.35;;;8.55;;
4428;SDS011;2227;47.810;8.810;2022-07-23T15:12:28;9.50;;;8.57;;
4428;SDS011;2227;47.810;8.810;2022-07-23T15:14:55;10.23;;;9.32;;
4428;SDS011;2227;47.810;8.810;2022-07-23T15:17:21;10.40;;;9.40;;
4428;SDS011;2227;47.810;8.810;2022-07-23T15:19:51;10.15;;;9.15;;
4428;SDS011;2227;47.810;8.810;2022-07-23T15:22:19;9.13;;;8.32;;
4428;SDS011;2227;47.810;8.810;2022-07-23T15:24:47;10.05;;;9.05;;
4428;SDS011;2227;47.810;8.810;2022-07-23T15:27:14;10.75;;;9.75;;
4428;SDS011;2227;47.810;8.810;2022-07-23T15:29:43;10.70;;;9.70;;
4428;SDS011;2227;47.810;8.810;2022-07-23T15:32:11;10.52;;;9.52;;
4428;SDS011;2227;47.810;8.810;2022-07-23T15:34:39;9.23;;;8.40;;
4428;SDS011;2227;47.810;8.810;2022-07-23T15:37:06;9.80;;;8.80;;
4428;SDS011;2227;47.810;8.810;2022-07-23T15:39:39;10.00;;;9.00;;
4428;SDS011;2227;47.810;8.810;2022-07-23T15:42:06;9.75;;;8.85;;
4428;SDS011;2227;47.810;8.810;2022-07-23T15:44:40;9.73;;;8.82;;
4428;SDS011;2227;47.810;8.810;2022-07-23T15:47:12;9.40;;;8.50;;
4428;SDS011;2227;47.810;8.810;2022-07-23T15:49:40;10.13;;;9.10;;
4428;SDS011;2227;47.810;8.810;2022-07-23T15:52:07;10.38;;;9.48;;
4428;SDS011;2227;47.810;8.810;2022-07-23T15:54:38;9.63;;;8.75;;
4428;SDS011;2227;47.810;8.810;2022-07-23T15:57:06;10.38;;;9.30;;
4428;SDS011;2227;47.810;8.810;2022-07-23T15:59:33;11.70;;;9.25;;
4428;SDS011;2227;47.810;8.810;2022-07-23T16:02:01;10.30;;;9.30;;
4428;SDS011;2227;47.810;8.810;2022-07-23T16:04:28;9.77;;;8.77;;
4428;SDS011;2227;47.810;8.810;2022-07-23T16:06:55;9.75;;;8.88;;
4428;SDS011;2227;47.810;8.810;2022-07-23T16:09:22;10.18;;;9.18;;
4428;SDS011;2227;47.810;8.810;2022-07-23T16:11:49;9.63;;;8.63;;
4428;SDS011;2227;47.810;8.810;2022-07-23T16:14:16;9.63;;;8.77;;
4428;SDS011;2227;47.810;8.810;2022-07-23T16:16:43;10.38;;;9.38;;
4428;SDS011;2227;47.810;8.810;2022-07-23T16:19:10;10.23;;;9.07;;
4428;SDS011;2227;47.810;8.810;2022-07-23T16:21:38;9.57;;;8.68;;
4428;SDS011;2227;47.810;8.810;2022-07-23T16:24:05;9.02;;;8.13;;
4428;SDS011;2227;47.810;8.810;2022-07-23T16:26:32;9.75;;;8.75;;
4428;SDS011;2227;47.810;8.810;2022-07-23T16:28:59;10.02;;;9.13;;
4428;SDS011;2227;47.810;8.810;2022-07-23T16:31:27;9.23;;;8.27;;
4428;SDS011;2227;47.810;8.810;2022-07-23T16:33:57;10.60;;;9.50;;
4428;SDS011;2227;47.810;8.810;2022-07-23T16:36:23;9.38;;;8.43;;
4428;SDS011;2227;47.810;8.810;2022-07-23T16:38:50;10.15;;;8.35;;
4428;SDS011;2227;47.810;8.810;2022-07-23T16:41:17;10.13;;;9.20;;
4428;SDS011;2227;47.810;8.810;2022-07-23T16:43:44;9.70;;;8.70;;
4428;SDS011;2227;47.810;8.810;2022-07-23T16:46:12;10.43;;;9.00;;
4428;SDS011;2227;47.810;8.810;2022-07-23T16:48:39;9.95;;;9.05;;
4428;SDS011;2227;47.810;8.810;2022-07-23T16:51:07;9.38;;;8.43;;
4428;SDS011;2227;47.810;8.810;2022-07-23T16:53:34;10.18;;;9.13;;
4428;SDS011;2227;47.810;8.810;2022-07-23T16:56:03;10.50;;;9.52;;
4428;SDS011;2227;47.810;8.810;2022-07-23T16:58:31;9.90;;;9.00;;
4428;SDS011;2227;47.810;8.810;2022-07-23T17:00:58;9.23;;;8.38;;
4428;SDS011;2227;47.810;8.810;2022-07-23T17:03:25;9.23;;;8.35;;
4428;SDS011;2227;47.810;8.810;2022-07-23T17:05:55;9.48;;;8.48;;
4428;SDS011;2227;47.810;8.810;2022-07-23T17:08:22;9.45;;;8.45;;
4428;SDS011;2227;47.810;8.810;2022-07-23T17:10:52;9.40;;;8.50;;
4428;SDS011;2227;47.810;8.810;2022-07-23T17:13:20;9.15;;;8.35;;
4428;SDS011;2227;47.810;8.810;2022-07-23T17:15:46;10.00;;;9.00;;
4428;SDS011;2227;47.810;8.810;2022-07-23T17:18:13;11.07;;;9.32;;
4428;SDS011;2227;47.810;8.810;2022-07-23T17:20:40;10.35;;;9.35;;
4428;SDS011;2227;47.810;8.810;2022-07-23T17:23:07;9.65;;;8.75;;
4428;SDS011;2227;47.810;8.810;2022-07-23T17:25:34;9.43;;;8.52;;
4428;SDS011;2227;47.810;8.810;2022-07-23T17:28:03;9.98;;;8.98;;
4428;SDS011;2227;47.810;8.810;2022-07-23T17:30:31;9.50;;;8.60;;
4428;SDS011;2227;47.810;8.810;2022-07-23T17:32:59;10.30;;;8.98;;
4428;SDS011;2227;47.810;8.810;2022-07-23T17:37:59;9.55;;;8.57;;
4428;SDS011;2227;47.810;8.810;2022-07-23T17:40:25;10.27;;;9.27;;
4428;SDS011;2227;47.810;8.810;2022-07-23T17:42:52;9.93;;;9.00;;
4428;SDS011;2227;47.810;8.810;2022-07-23T17:45:19;9.75;;;8.85;;
4428;SDS011;2227;47.810;8.810;2022-07-23T17:47:47;9.60;;;8.70;;
4428;SDS011;2227;47.810;8.810;2022-07-23T17:50:15;10.27;;;9.27;;
4428;SDS011;2227;47.810;8.810;2022-07-23T17:52:52;10.13;;;9.13;;
4428;SDS011;2227;47.810;8.810;2022-07-23T17:55:23;10.35;;;9.35;;
4428;SDS011;2227;47.810;8.810;2022-07-23T17:57:51;10.80;;;9.80;;
4428;SDS011;2227;47.810;8.810;2022-07-23T18:00:20;10.27;;;9.27;;
4428;SDS011;2227;47.810;8.810;2022-07-23T18:02:49;11.90;;;10.70;;
4428;SDS011;2227;47.810;8.810;2022-07-23T18:05:16;10.60;;;9.43;;
4428;SDS011;2227;47.810;8.810;2022-07-23T18:07:43;9.80;;;8.90;;
4428;SDS011;2227;47.810;8.810;2022-07-23T18:10:11;10.15;;;9.18;;
4428;SDS011;2227;47.810;8.810;2022-07-23T18:12:38;10.82;;;9.82;;
4428;SDS011;2227;47.810;8.810;2022-07-23T18:15:05;9.48;;;8.55;;
4428;SDS011;2227;47.810;8.810;2022-07-23T18:17:33;10.00;;;9.10;;
4428;SDS011;2227;47.810;8.810;2022-07-23T18:20:01;10.38;;;9.27;;
4428;SDS011;2227;47.810;8.810;2022-07-23T18:22:29;9.38;;;8.55;;
4428;SDS011;2227;47.810;8.810;2022-07-23T18:24:56;11.32;;;10.30;;
4428;SDS011;2227;47.810;8.810;2022-07-23T18:27:23;11.60;;;9.88;;
4428;SDS011;2227;47.810;8.810;2022-07-23T18:29:50;10.25;;;9.25;;
4428;SDS011;2227;47.810;8.810;2022-07-23T18:32:17;10.30;;;9.40;;
4428;SDS011;2227;47.810;8.810;2022-07-23T18:34:44;10.75;;;9.75;;
4428;SDS011;2227;47.810;8.810;2022-07-23T18:37:11;10.80;;;9.70;;
4428;SDS011;2227;47.810;8.810;2022-07-23T18:39:58;10.25;;;9.25;;
4428;SDS011;2227;47.810;8.810;2022-07-23T18:42:25;10.10;;;9.10;;
4428;SDS011;2227;47.810;8.810;2022-07-23T18:44:54;10.48;;;9.48;;
4428;SDS011;2227;47.810;8.810;2022-07-23T18:47:21;11.63;;;10.38;;
4428;SDS011;2227;47.810;8.810;2022-07-23T18:49:48;10.65;;;9.65;;
4428;SDS011;2227;47.810;8.810;2022-07-23T18:52:15;10.65;;;9.57;;
4428;SDS011;2227;47.810;8.810;2022-07-23T18:54:42;11.40;;;10.32;;
4428;SDS011;2227;47.810;8.810;2022-07-23T18:57:08;10.63;;;9.52;;
4428;SDS011;2227;47.810;8.810;2022-07-23T18:59:35;11.05;;;10.00;;
4428;SDS011;2227;47.810;8.810;2022-07-23T19:02:02;10.95;;;9.93;;
4428;SDS011;2227;47.810;8.810;2022-07-23T19:04:30;10.77;;;9.77;;
4428;SDS011;2227;47.810;8.810;2022-07-23T19:06:57;10.88;;;9.75;;
4428;SDS011;2227;47.810;8.810;2022-07-23T19:09:24;11.43;;;10.13;;
4428;SDS011;2227;47.810;8.810;2022-07-23T19:11:55;10.93;;;9.93;;
4428;SDS011;2227;47.810;8.810;2022-07-23T19:14:22;12.07;;;10.93;;
4428;SDS011;2227;47.810;8.810;2022-07-23T19:16:49;11.25;;;10.15;;
4428;SDS011;2227;47.810;8.810;2022-07-23T19:19:16;11.43;;;10.25;;
4428;SDS011;2227;47.810;8.810;2022-07-23T19:21:43;10.57;;;9.55;;
4428;SDS011;2227;47.810;8.810;2022-07-23T19:24:10;10.10;;;9.20;;
4428;SDS011;2227;47.810;8.810;2022-07-23T19:26:37;11.13;;;10.00;;
4428;SDS011;2227;47.810;8.810;2022-07-23T19:29:04;11.25;;;10.02;;
4428;SDS011;2227;47.810;8.810;2022-07-23T19:31:32;11.15;;;10.05;;
4428;SDS011;2227;47.810;8.810;2022-07-23T19:33:58;11.07;;;9.00;;
4428;SDS011;2227;47.810;8.810;2022-07-23T19:36:25;10.50;;;9.40;;
4428;SDS011;2227;47.810;8.810;2022-07-23T19:38:52;10.18;;;8.75;;
4428;SDS011;2227;47.810;8.810;2022-07-23T19:41:19;9.02;;;8.23;;
4428;SDS011;2227;47.810;8.810;2022-07-23T19:43:46;8.68;;;7.88;;
4428;SDS011;2227;47.810;8.810;2022-07-23T19:46:13;8.48;;;7.68;;
4428;SDS011;2227;47.810;8.810;2022-07-23T19:48:40;8.00;;;7.20;;
4428;SDS011;2227;47.810;8.810;2022-07-23T19:51:06;7.80;;;7.03;;
4428;SDS011;2227;47.810;8.810;2022-07-23T19:53:33;8.75;;;7.85;;
4428;SDS011;2227;47.810;8.810;2022-07-23T19:56:00;7.78;;;6.72;;
4428;SDS011;2227;47.810;8.810;2022-07-23T19:58:27;8.20;;;7.40;;
4428;SDS011;2227;47.810;8.810;2022-07-23T20:00:54;8.27;;;7.47;;
4428;SDS011;2227;47.810;8.810;2022-07-23T20:03:21;7.82;;;7.03;;
4428;SDS011;2227;47.810;8.810;2022-07-23T20:05:47;8.00;;;7.13;;
4428;SDS011;2227;47.810;8.810;2022-07-23T20:08:14;8.40;;;7.50;;
4428;SDS011;2227;47.810;8.810;2022-07-23T20:10:44;8.60;;;7.70;;
4428;SDS011;2227;47.810;8.810;2022-07-23T20:13:11;8.63;;;7.80;;
4428;SDS011;2227;47.810;8.810;2022-07-23T20:15:38;8.90;;;8.00;;
4428;SDS011;2227;47.810;8.810;2022-07-23T20:18:05;9.23;;;7.68;;
4428;SDS011;2227;47.810;8.810;2022-07-23T20:20:32;8.57;;;7.78;;
4428;SDS011;2227;47.810;8.810;2022-07-23T20:22:59;8.23;;;7.43;;
4428;SDS011;2227;47.810;8.810;2022-07-23T20:25:26;7.93;;;7.13;;
4428;SDS011;2227;47.810;8.810;2022-07-23T20:27:53;8.45;;;7.57;;
4428;SDS011;2227;47.810;8.810;2022-07-23T20:30:21;9.45;;;7.70;;
4428;SDS011;2227;47.810;8.810;2022-07-23T20:32:48;8.43;;;7.38;;
4428;SDS011;2227;47.810;8.810;2022-07-23T20:35:15;8.23;;;7.10;;
4428;SDS011;2227;47.810;8.810;2022-07-23T20:37:42;8.35;;;7.55;;
4428;SDS011;2227;47.810;8.810;2022-07-23T20:40:09;8.50;;;7.60;;
4428;SDS011;2227;47.810;8.810;2022-07-23T20:42:36;8.63;;;7.72;;
4428;SDS011;2227;47.810;8.810;2022-07-23T20:45:03;8.77;;;7.97;;